Time;durP1;ratioP1;P1;durP2;ratioP2;P2;SDS_P1;SDS_P2;PMS_P1;PMS_P2;Temp;Humidity;BMP_temperature;BMP_pressure;BME280_temperature;BME280_humidity;BME280_pressure;Samples;Min_cycle;Max_cycle;Signal;HPM_P1;HPM_P2
2021/11/05 00:00:10;;;;;;;1999.90;999.90;;;;;;;9.32;100.00;95854.53;5049688;28;20707;-74
2021/11/05 00:02:37;;;;;;;1999.90;999.90;;;;;;;9.25;100.00;95860.06;5049631;28;20197;-73
2021/11/05 00:05:06;;;;;;;1999.90;999.90;;;;;;;9.22;100.00;95859.81;5049880;28;20193;-74
2021/11/05 00:07:33;;;;;;;1999.90;999.90;;;;;;;9.11;100.00;95858.38;5049593;28;20193;-74
2021/11/05 00:10:00;;;;;;;1999.90;999.90;;;;;;;9.06;100.00;95861.81;5049981;28;20194;-74
2021/11/05 00:12:27;;;;;;;1999.90;999.90;;;;;;;8.97;100.00;95864.19;5049298;28;20316;-74
2021/11/05 00:14:54;;;;;;;1999.90;999.90;;;;;;;9.00;100.00;95863.66;5049817;28;20326;-74
2021/11/05 00:17:21;;;;;;;1999.90;999.90;;;;;;;9.02;100.00;95865.97;5049468;28;20196;-74
2021/11/05 00:19:48;;;;;;;1999.90;999.90;;;;;;;8.92;100.00;95861.66;5049795;28;20666;-73
2021/11/05 00:22:17;;;;;;;1999.90;999.90;;;;;;;8.95;100.00;95858.53;5049449;28;20205;-74
2021/11/05 00:24:44;;;;;;;1999.90;999.90;;;;;;;9.01;100.00;95854.06;5049791;28;20250;-73
2021/11/05 00:27:11;;;;;;;1999.90;999.90;;;;;;;8.91;100.00;95843.81;5049391;28;20257;-74
2021/11/05 00:29:38;;;;;;;1999.90;999.90;;;;;;;9.02;100.00;95847.81;5049446;28;20197;-73
2021/11/05 00:32:06;;;;;;;1999.90;999.90;;;;;;;9.23;100.00;95851.00;5049323;28;20193;-73
2021/11/05 00:34:33;;;;;;;1999.90;999.90;;;;;;;9.31;100.00;95848.59;5049696;28;20194;-74
2021/11/05 00:37:00;;;;;;;1999.90;999.90;;;;;;;9.52;100.00;95844.69;5049728;28;20201;-74
2021/11/05 00:39:29;;;;;;;1999.90;999.90;;;;;;;9.89;100.00;95833.63;5049239;28;20232;-73
2021/11/05 00:41:56;;;;;;;1999.90;999.90;;;;;;;10.08;100.00;95841.41;5049349;28;20239;-74
2021/11/05 00:44:23;;;;;;;1999.90;999.90;;;;;;;10.15;100.00;95836.63;5049353;28;20237;-74
2021/11/05 00:46:50;;;;;;;1999.90;999.90;;;;;;;10.28;100.00;95833.34;5049598;28;20197;-74
2021/11/05 00:49:17;;;;;;;1999.90;999.90;;;;;;;10.35;100.00;95836.38;5049656;28;20204;-74
2021/11/05 00:51:44;;;;;;;1999.90;999.90;;;;;;;10.43;100.00;95828.97;5049344;28;20210;-74
2021/11/05 00:54:12;;;;;;;1999.90;999.90;;;;;;;10.50;100.00;95826.81;5049289;28;20251;-74
2021/11/05 00:56:40;;;;;;;1999.90;999.90;;;;;;;10.47;100.00;95835.16;5049153;28;20259;-74
2021/11/05 00:59:07;;;;;;;1999.90;999.90;;;;;;;10.58;100.00;95834.72;5049207;28;20323;-74
2021/11/05 01:01:35;;;;;;;1999.90;999.90;;;;;;;10.63;100.00;95837.22;5051900;28;20694;-74
2021/11/05 01:04:02;;;;;;;1999.90;999.90;;;;;;;10.63;100.00;95832.03;5052803;28;20189;-74
2021/11/05 01:06:29;;;;;;;1999.90;999.90;;;;;;;10.62;100.00;95824.50;5052917;28;20656;-74
2021/11/05 01:08:56;;;;;;;1999.90;999.90;;;;;;;10.69;100.00;95833.50;5052717;28;20632;-74
2021/11/05 01:11:23;;;;;;;1999.90;999.90;;;;;;;10.66;100.00;95825.50;5051447;28;20198;-74
2021/11/05 01:13:51;;;;;;;1999.90;999.90;;;;;;;10.90;100.00;95836.53;5052513;28;20221;-74
2021/11/05 01:16:18;;;;;;;1999.90;999.90;;;;;;;10.74;100.00;95823.03;5052382;28;20254;-74
2021/11/05 01:18:47;;;;;;;1999.90;999.90;;;;;;;10.73;100.00;95820.69;5052801;28;20270;-74
2021/11/05 01:21:14;;;;;;;1999.90;999.90;;;;;;;10.73;100.00;95826.66;5052006;28;20201;-74
2021/11/05 01:23:41;;;;;;;1999.90;999.90;;;;;;;10.74;100.00;95819.66;5052635;28;20197;-73
2021/11/05 01:26:08;;;;;;;1999.90;999.90;;;;;;;10.70;100.00;95827.25;5052351;28;20197;-74
2021/11/05 01:28:35;;;;;;;1999.90;999.90;;;;;;;10.40;100.00;95811.38;5052616;28;20278;-74
2021/11/05 01:31:04;;;;;;;1999.90;999.90;;;;;;;10.35;100.00;95810.41;5052452;28;20665;-74
2021/11/05 01:33:31;;;;;;;1999.90;999.90;;;;;;;10.34;100.00;95814.03;5052106;28;20734;-74
2021/11/05 01:35:58;;;;;;;1999.90;999.90;;;;;;;10.16;100.00;95807.03;5052080;28;20567;-74
2021/11/05 01:38:25;;;;;;;1999.90;999.90;;;;;;;9.81;100.00;95815.31;5051794;28;20201;-73
2021/11/05 01:40:53;;;;;;;1999.90;999.90;;;;;;;9.10;100.00;95826.50;5052230;28;20225;-73
2021/11/05 01:43:20;;;;;;;1999.90;999.90;;;;;;;9.20;100.00;95816.03;5052071;28;20197;-73
2021/11/05 01:45:49;;;;;;;1999.90;999.90;;;;;;;9.04;100.00;95807.63;5052221;28;20227;-74
2021/11/05 01:48:18;;;;;;;1999.90;999.90;;;;;;;8.96;100.00;95815.25;5051976;28;20288;-73
2021/11/05 01:50:45;;;;;;;1999.90;999.90;;;;;;;8.99;100.00;95817.28;5051917;28;20201;-74
2021/11/05 01:53:13;;;;;;;1999.90;999.90;;;;;;;8.95;100.00;95816.28;5052118;28;20194;-73
2021/11/05 01:55:43;;;;;;;1999.90;999.90;;;;;;;8.87;100.00;95822.81;5051890;28;20201;-73
2021/11/05 01:58:10;;;;;;;1999.90;999.90;;;;;;;8.73;100.00;95828.91;5051643;28;20288;-74
2021/11/05 02:00:39;;;;;;;1999.90;999.90;;;;;;;8.63;100.00;95822.78;5051751;28;20220;-74
2021/11/05 02:03:06;;;;;;;1999.90;999.90;;;;;;;8.44;100.00;95829.69;5051658;28;20202;-74
2021/11/05 02:05:35;;;;;;;1999.90;999.90;;;;;;;8.39;100.00;95832.31;5051525;28;20224;-74
2021/11/05 02:08:03;;;;;;;1999.90;999.90;;;;;;;8.37;100.00;95833.63;5051798;28;20197;-74
2021/11/05 02:10:32;;;;;;;1999.90;999.90;;;;;;;8.27;100.00;95824.06;5051702;28;20669;-73
2021/11/05 02:12:59;;;;;;;1999.90;999.90;;;;;;;8.19;100.00;95819.47;5050883;28;20318;-73
2021/11/05 02:15:27;;;;;;;1999.90;999.90;;;;;;;8.15;100.00;95800.34;5051593;28;20623;-73
2021/11/05 02:17:54;;;;;;;1999.90;999.90;;;;;;;8.25;100.00;95815.03;5051371;28;20739;-73
2021/11/05 02:20:24;;;;;;;1999.90;999.90;;;;;;;8.20;100.00;95818.44;5051269;28;20670;-74
2021/11/05 02:22:53;;;;;;;1999.90;999.90;;;;;;;8.05;100.00;95816.72;5051206;28;20193;-74
2021/11/05 02:25:21;;;;;;;1999.90;999.90;;;;;;;8.09;100.00;95811.78;5051590;28;20278;-73
2021/11/05 02:27:49;;;;;;;1999.90;999.90;;;;;;;8.13;100.00;95807.59;5051460;28;20259;-73
2021/11/05 02:30:17;;;;;;;1999.90;999.90;;;;;;;8.06;100.00;95807.16;5051440;28;20275;-73
2021/11/05 02:32:44;;;;;;;1999.90;999.90;;;;;;;8.06;100.00;95818.28;5051071;28;20284;-73
2021/11/05 02:35:14;;;;;;;1999.90;999.90;;;;;;;7.96;100.00;95818.34;5051284;28;20197;-73
2021/11/05 02:37:42;;;;;;;1999.90;999.90;;;;;;;7.93;100.00;95815.50;5051325;28;20263;-73
2021/11/05 02:40:12;;;;;;;1999.90;999.90;;;;;;;7.95;100.00;95821.19;5050898;28;20308;-73
2021/11/05 02:42:40;;;;;;;1999.90;999.90;;;;;;;7.90;100.00;95821.22;5051462;28;20288;-73
2021/11/05 02:45:09;;;;;;;1999.90;999.90;;;;;;;7.98;100.00;95812.88;5051525;28;20194;-73
2021/11/05 02:47:36;;;;;;;1999.90;999.90;;;;;;;7.94;100.00;95819.63;5050990;28;20291;-73
2021/11/05 02:50:08;;;;;;;1999.90;999.90;;;;;;;7.84;100.00;95819.69;5050861;28;20594;-73
2021/11/05 02:52:35;;;;;;;1999.90;999.90;;;;;;;7.87;100.00;95814.00;5050823;28;20189;-73
2021/11/05 02:55:04;;;;;;;1999.90;999.90;;;;;;;7.81;100.00;95815.84;5050780;28;20201;-73
2021/11/05 02:57:33;;;;;;;1999.90;999.90;;;;;;;7.82;100.00;95799.25;5050838;28;20228;-73
2021/11/05 03:00:00;;;;;;;1999.90;999.90;;;;;;;7.83;100.00;95798.22;5050848;28;20246;-73
2021/11/05 03:02:27;;;;;;;1999.90;999.90;;;;;;;7.94;100.00;95797.13;5050495;28;20203;-73
2021/11/05 03:04:55;;;;;;;1999.90;999.90;;;;;;;7.97;100.00;95804.34;5050480;28;20189;-74
2021/11/05 03:07:22;;;;;;;1999.90;999.90;;;;;;;7.85;100.00;95809.09;5050448;28;20197;-73
2021/11/05 03:09:51;;;;;;;1999.90;999.90;;;;;;;7.77;100.00;95804.47;5050461;28;20574;-73
2021/11/05 03:12:18;;;;;;;1999.90;999.90;;;;;;;7.74;100.00;95805.78;5050053;28;20236;-73
2021/11/05 03:14:46;;;;;;;1999.90;999.90;;;;;;;7.70;100.00;95809.16;5050402;28;20574;-73
2021/11/05 03:17:14;;;;;;;1999.90;999.90;;;;;;;7.66;100.00;95810.75;5050272;28;20612;-73
2021/11/05 03:19:42;;;;;;;1999.90;999.90;;;;;;;7.55;100.00;95809.25;5050479;28;20312;-73
2021/11/05 03:22:09;;;;;;;1999.90;999.90;;;;;;;7.35;100.00;95815.28;5050424;28;20193;-73
2021/11/05 03:24:36;;;;;;;1999.90;999.90;;;;;;;7.22;100.00;95824.34;5050063;28;20201;-73
2021/11/05 03:27:04;;;;;;;1999.90;999.90;;;;;;;7.12;100.00;95823.63;5050293;28;20288;-73
2021/11/05 03:29:31;;;;;;;1999.90;999.90;;;;;;;7.18;100.00;95813.00;5050355;28;20601;-73
2021/11/05 03:32:00;;;;;;;1999.90;999.90;;;;;;;7.25;100.00;95816.06;5050386;28;20267;-73
2021/11/05 03:34:27;;;;;;;1999.90;999.90;;;;;;;7.23;100.00;95817.38;5050134;28;20642;-73
2021/11/05 03:36:54;;;;;;;1999.90;999.90;;;;;;;7.22;100.00;95819.16;5050312;28;20197;-73
2021/11/05 03:39:21;;;;;;;1999.90;999.90;;;;;;;7.17;100.00;95816.59;5050015;28;20220;-73
2021/11/05 03:41:48;;;;;;;1999.90;999.90;;;;;;;7.17;100.00;95815.84;5049845;28;20225;-73
2021/11/05 03:44:15;;;;;;;1999.90;999.90;;;;;;;7.13;100.00;95822.56;5049843;28;20193;-73
2021/11/05 03:46:42;;;;;;;1999.90;999.90;;;;;;;7.17;100.00;95818.44;5049741;28;20619;-73
2021/11/05 03:49:11;;;;;;;1999.90;999.90;;;;;;;7.28;100.00;95819.94;5049985;28;20197;-73
2021/11/05 03:51:38;;;;;;;1999.90;999.90;;;;;;;7.17;100.00;95821.03;5049902;28;20200;-73
2021/11/05 03:54:06;;;;;;;1999.90;999.90;;;;;;;7.18;100.00;95823.31;5049840;28;20255;-73
2021/11/05 03:56:33;;;;;;;1999.90;999.90;;;;;;;7.14;100.00;95811.97;5049760;28;20201;-73
2021/11/05 03:59:01;;;;;;;1999.90;999.90;;;;;;;7.12;100.00;95828.78;5050068;28;20262;-73
2021/11/05 04:01:28;;;;;;;1999.90;999.90;;;;;;;7.03;100.00;95820.78;5049962;28;20301;-73
2021/11/05 04:03:55;;;;;;;1999.90;999.90;;;;;;;6.86;100.00;95825.47;5049813;28;20887;-73
2021/11/05 04:06:24;;;;;;;1999.90;999.90;;;;;;;6.82;100.00;95811.53;5049755;28;20254;-73
2021/11/05 04:08:51;;;;;;;1999.90;999.90;;;;;;;6.79;100.00;95812.06;5049928;28;20254;-73
2021/11/05 04:11:19;;;;;;;1999.90;999.90;;;;;;;6.82;100.00;95814.88;5049512;28;20220;-73
2021/11/05 04:13:46;;;;;;;1999.90;999.90;;;;;;;6.90;100.00;95811.78;5049700;28;20192;-73
2021/11/05 04:16:14;;;;;;;1999.90;999.90;;;;;;;6.89;100.00;95809.44;5049955;28;20665;-73
2021/11/05 04:18:41;;;;;;;1999.90;999.90;;;;;;;6.84;100.00;95810.25;5049874;28;20193;-73
2021/11/05 04:21:09;;;;;;;1999.90;999.90;;;;;;;6.85;100.00;95804.03;5049782;28;20233;-73
2021/11/05 04:23:37;;;;;;;1999.90;999.90;;;;;;;6.81;100.00;95802.25;5049583;28;20236;-73
2021/11/05 04:26:05;;;;;;;1999.90;999.90;;;;;;;6.78;100.00;95793.19;5049800;28;20224;-73
2021/11/05 04:28:32;;;;;;;1999.90;999.90;;;;;;;6.77;100.00;95803.81;5049727;28;20197;-73
2021/11/05 04:31:00;;;;;;;1999.90;999.90;;;;;;;6.80;100.00;95806.63;5049598;28;20203;-73
2021/11/05 04:33:27;;;;;;;1999.90;999.90;;;;;;;6.92;100.00;95804.53;5049499;28;20197;-73
2021/11/05 04:35:54;;;;;;;1999.90;999.90;;;;;;;6.75;100.00;95814.38;5052824;28;20209;-73
2021/11/05 04:38:21;;;;;;;1999.90;999.90;;;;;;;6.81;100.00;95826.28;5053538;28;20197;-73
2021/11/05 04:40:49;;;;;;;1999.90;999.90;;;;;;;6.78;100.00;95819.03;5053514;28;20224;-73
2021/11/05 04:43:16;;;;;;;1999.90;999.90;;;;;;;6.66;100.00;95821.13;5053453;28;20557;-73
2021/11/05 04:45:44;;;;;;;1999.90;999.90;;;;;;;6.51;100.00;95828.88;5053504;28;20274;-73
2021/11/05 04:48:11;;;;;;;1999.90;999.90;;;;;;;6.39;100.00;95844.59;5052995;28;20200;-73
2021/11/05 04:50:39;;;;;;;1999.90;999.90;;;;;;;6.38;100.00;95829.38;5053405;28;20280;-73
2021/11/05 04:53:06;;;;;;;1999.90;999.90;;;;;;;6.41;100.00;95850.31;5053128;28;20205;-73
2021/11/05 04:55:33;;;;;;;1999.90;999.90;;;;;;;6.48;100.00;95850.81;5053380;28;20212;-73
2021/11/05 04:58:02;;;;;;;1999.90;999.90;;;;;;;6.43;100.00;95837.88;5052936;28;20197;-73
2021/11/05 05:00:29;;;;;;;1999.90;999.90;;;;;;;6.51;100.00;95856.50;5053108;28;20303;-73
2021/11/05 05:02:57;;;;;;;1999.90;999.90;;;;;;;6.53;100.00;95836.34;5052822;28;20251;-73
2021/11/05 05:05:25;;;;;;;1999.90;999.90;;;;;;;6.76;100.00;95849.53;5052681;28;20197;-73
2021/11/05 05:07:52;;;;;;;1999.90;999.90;;;;;;;6.80;100.00;95842.78;5052635;28;20740;-73
2021/11/05 05:10:19;;;;;;;1999.90;999.90;;;;;;;7.09;100.00;95844.81;5052639;28;20251;-73
2021/11/05 05:12:47;;;;;;;1999.90;999.90;;;;;;;7.29;100.00;95852.50;5052480;28;20291;-74
2021/11/05 05:15:16;;;;;;;1999.90;999.90;;;;;;;7.40;100.00;95855.84;5052849;28;20216;-74
2021/11/05 05:17:44;;;;;;;1999.90;999.90;;;;;;;7.65;100.00;95851.34;5052690;28;20204;-73
2021/11/05 05:20:13;;;;;;;1999.90;999.90;;;;;;;7.66;100.00;95870.22;5052431;28;20681;-73
2021/11/05 05:22:41;;;;;;;1999.90;999.90;;;;;;;7.59;100.00;95873.09;5052706;28;20278;-73
2021/11/05 05:25:10;;;;;;;1999.90;999.90;;;;;;;7.44;100.00;95870.56;5052458;28;20205;-73
2021/11/05 05:27:37;;;;;;;1999.90;999.90;;;;;;;7.24;100.00;95878.38;5052195;28;20197;-73
2021/11/05 05:30:07;;;;;;;1999.90;999.90;;;;;;;7.05;100.00;95885.91;5052349;28;20636;-73
2021/11/05 05:32:36;;;;;;;1999.90;999.90;;;;;;;7.12;100.00;95885.63;5052692;28;20296;-73
2021/11/05 05:35:04;;;;;;;1999.90;999.90;;;;;;;7.22;100.00;95890.78;5052498;28;20208;-72
2021/11/05 05:37:31;;;;;;;1999.90;999.90;;;;;;;7.12;100.00;95893.41;5052097;28;20193;-73
2021/11/05 05:39:58;;;;;;;1999.90;999.90;;;;;;;7.28;100.00;95892.31;5052431;28;20231;-73
2021/11/05 05:42:25;;;;;;;1999.90;999.90;;;;;;;7.06;100.00;95891.84;5051935;28;20224;-73
2021/11/05 05:44:52;;;;;;;1999.90;999.90;;;;;;;7.06;100.00;95897.00;5052005;28;20257;-73
2021/11/05 05:47:19;;;;;;;1999.90;999.90;;;;;;;7.11;100.00;95889.25;5051458;28;20201;-74
2021/11/05 05:49:51;;;;;;;1999.90;999.90;;;;;;;7.16;100.00;95881.50;5052139;28;20284;-73
2021/11/05 05:52:18;;;;;;;1999.90;999.90;;;;;;;7.16;100.00;95884.84;5051411;28;20177;-73
2021/11/05 05:54:45;;;;;;;1999.90;999.90;;;;;;;7.23;100.00;95882.75;5052103;28;20275;-74
2021/11/05 05:57:12;;;;;;;1999.90;999.90;;;;;;;7.26;100.00;95897.75;5052030;28;20197;-73
2021/11/05 05:59:39;;;;;;;1999.90;999.90;;;;;;;7.32;100.00;95896.69;5052113;28;20549;-73
2021/11/05 06:02:07;;;;;;;1999.90;999.90;;;;;;;7.43;100.00;95901.84;5051807;28;20319;-73
2021/11/05 06:04:36;;;;;;;1999.90;999.90;;;;;;;7.74;100.00;95906.66;5052131;28;20198;-73
2021/11/05 06:07:05;;;;;;;1999.90;999.90;;;;;;;7.75;100.00;95912.63;5051384;28;20557;-73
2021/11/05 06:09:32;;;;;;;1999.90;999.90;;;;;;;7.89;100.00;95902.47;5051645;28;20338;-72
2021/11/05 06:11:59;;;;;;;1999.90;999.90;;;;;;;7.98;100.00;95887.91;5051020;28;20233;-74
2021/11/05 06:14:27;;;;;;;1999.90;999.90;;;;;;;8.06;100.00;95889.97;5051303;28;20200;-73
2021/11/05 06:16:54;;;;;;;1999.90;999.90;;;;;;;8.16;100.00;95880.34;5051467;28;20227;-74
2021/11/05 06:19:21;;;;;;;1999.90;999.90;;;;;;;8.49;100.00;95878.84;5051071;28;20790;-73
2021/11/05 06:21:48;;;;;;;1999.90;999.90;;;;;;;8.62;100.00;95888.59;5051227;28;20304;-74
2021/11/05 06:24:17;;;;;;;1999.90;999.90;;;;;;;8.75;100.00;95896.81;5050962;28;20232;-74
2021/11/05 06:26:44;;;;;;;1999.90;999.90;;;;;;;8.92;100.00;95904.94;5050924;28;20197;-74
2021/11/05 06:29:11;;;;;;;1999.90;999.90;;;;;;;9.20;100.00;95886.03;5050810;28;20235;-74
2021/11/05 06:31:38;;;;;;;1999.90;999.90;;;;;;;9.31;100.00;95887.50;5051181;28;20197;-74
2021/11/05 06:34:05;;;;;;;1999.90;999.90;;;;;;;9.45;100.00;95890.97;5051243;28;20630;-74
2021/11/05 06:36:33;;;;;;;1999.90;999.90;;;;;;;9.59;100.00;95874.72;5050844;28;20201;-74
2021/11/05 06:39:00;;;;;;;1999.90;999.90;;;;;;;9.68;100.00;95884.22;5050817;28;20205;-74
2021/11/05 06:41:29;;;;;;;1999.90;999.90;;;;;;;9.84;100.00;95892.59;5050767;28;20221;-74
2021/11/05 06:43:57;;;;;;;1999.90;999.90;;;;;;;9.98;100.00;95888.28;5050905;28;20274;-74
2021/11/05 06:46:24;;;;;;;1999.90;999.90;;;;;;;10.16;100.00;95890.13;5050643;28;20204;-74
2021/11/05 06:48:51;;;;;;;1999.90;999.90;;;;;;;10.19;100.00;95891.41;5050900;28;20295;-74
2021/11/05 06:51:19;;;;;;;1999.90;999.90;;;;;;;10.33;100.00;95880.03;5050704;28;20200;-74
2021/11/05 06:53:46;;;;;;;1999.90;999.90;;;;;;;10.57;100.00;95879.94;5050599;28;20227;-73
2021/11/05 06:56:14;;;;;;;1999.90;999.90;;;;;;;10.80;100.00;95901.69;5050693;28;20204;-74
2021/11/05 06:58:44;;;;;;;1999.90;999.90;;;;;;;10.99;100.00;95894.63;5049919;28;20681;-74
2021/11/05 07:01:12;;;;;;;1999.90;999.90;;;;;;;11.15;100.00;95890.72;5050529;28;20323;-74
2021/11/05 07:03:39;;;;;;;1999.90;999.90;;;;;;;11.37;100.00;95907.50;5050614;28;20280;-74
2021/11/05 07:06:06;;;;;;;1999.90;999.90;;;;;;;11.46;100.00;95910.97;5050801;28;20201;-74
2021/11/05 07:08:33;;;;;;;1999.90;999.90;;;;;;;11.58;100.00;95908.69;5050346;28;20188;-74
2021/11/05 07:11:01;;;;;;;1999.90;999.90;;;;;;;11.76;100.00;95910.44;5050355;28;20251;-74
2021/11/05 07:13:28;;;;;;;1999.90;999.90;;;;;;;11.99;100.00;95919.91;5050042;28;20282;-74
2021/11/05 07:15:57;;;;;;;1999.90;999.90;;;;;;;12.28;100.00;95910.97;5050591;28;20205;-74
2021/11/05 07:18:25;;;;;;;1999.90;999.90;;;;;;;12.56;100.00;95917.63;5050327;28;20259;-74
2021/11/05 07:20:52;;;;;;;1999.90;999.90;;;;;;;12.85;100.00;95919.88;5050243;28;20673;-74
2021/11/05 07:23:21;;;;;;;1999.90;999.90;;;;;;;13.13;100.00;95923.13;5050182;28;20201;-74
2021/11/05 07:25:48;;;;;;;1999.90;999.90;;;;;;;13.32;100.00;95914.03;5050325;28;20665;-74
2021/11/05 07:28:15;;;;;;;1999.90;999.90;;;;;;;13.52;100.00;95914.56;5050129;28;20196;-74
2021/11/05 07:30:43;;;;;;;1999.90;999.90;;;;;;;13.72;100.00;95904.38;5050412;28;20197;-74
2021/11/05 07:33:11;;;;;;;1999.90;999.90;;;;;;;13.75;100.00;95906.34;5050283;28;20280;-74
2021/11/05 07:35:38;;;;;;;1999.90;999.90;;;;;;;13.96;100.00;95900.56;5050100;28;20192;-74
2021/11/05 07:38:06;;;;;;;1999.90;999.90;;;;;;;13.79;100.00;95909.94;5050025;28;20204;-73
2021/11/05 07:40:33;;;;;;;1999.90;999.90;;;;;;;13.82;100.00;95899.94;5050225;28;20201;-74
2021/11/05 07:43:00;;;;;;;1999.90;999.90;;;;;;;14.03;100.00;95891.22;5049771;28;20220;-74
2021/11/05 07:45:28;;;;;;;1999.90;999.90;;;;;;;14.21;100.00;95892.00;5050014;28;20193;-74
2021/11/05 07:47:56;;;;;;;1999.90;999.90;;;;;;;14.29;100.00;95904.34;5049761;28;20284;-73
2021/11/05 07:50:26;;;;;;;1999.90;999.90;;;;;;;14.56;100.00;95904.06;5049835;28;20662;-73
2021/11/05 07:52:54;;;;;;;1999.90;999.90;;;;;;;14.60;100.00;95904.97;5050176;28;20185;-74
2021/11/05 07:55:21;;;;;;;1999.90;999.90;;;;;;;14.73;100.00;95902.53;5050171;28;20743;-74
2021/11/05 07:57:49;;;;;;;1999.90;999.90;;;;;;;15.04;100.00;95910.97;5049869;28;20579;-74
2021/11/05 08:00:16;;;;;;;1999.90;999.90;;;;;;;15.12;100.00;95901.56;5049838;28;20197;-74
2021/11/05 08:02:43;;;;;;;1999.90;999.90;;;;;;;15.29;100.00;95901.53;5049260;28;20304;-74
2021/11/05 08:05:11;;;;;;;1999.90;999.90;;;;;;;15.40;99.27;95895.59;5050072;28;20193;-74
2021/11/05 08:07:40;;;;;;;1999.90;999.90;;;;;;;15.52;99.12;95891.59;5049955;28;20197;-75
2021/11/05 08:10:09;;;;;;;1999.90;999.90;;;;;;;15.52;98.49;95907.31;5052411;28;20201;-74
2021/11/05 08:12:36;;;;;;;1999.90;999.90;;;;;;;15.51;98.27;95906.53;5053640;28;20363;-73
2021/11/05 08:15:04;;;;;;;1999.90;999.90;;;;;;;15.56;98.64;95900.38;5054047;28;20193;-74
2021/11/05 08:17:31;;;;;;;1999.90;999.90;;;;;;;15.74;97.88;95894.00;5053624;28;20234;-73
2021/11/05 08:19:58;;;;;;;1999.90;999.90;;;;;;;16.03;96.79;95901.06;5053736;28;20689;-74
2021/11/05 08:22:25;;;;;;;1999.90;999.90;;;;;;;16.35;95.04;95897.78;5053506;28;20282;-74
2021/11/05 08:24:54;;;;;;;1999.90;999.90;;;;;;;16.54;92.78;95907.81;5049264;28;20197;-73
2021/11/05 08:27:21;;;;;;;1999.90;999.90;;;;;;;16.58;92.35;95911.34;5047071;28;20235;-74
2021/11/05 08:29:49;;;;;;;1999.90;999.90;;;;;;;16.76;92.25;95895.16;5053548;28;20197;-73
2021/11/05 08:32:16;;;;;;;1999.90;999.90;;;;;;;16.91;89.12;95906.16;5053415;28;20578;-73
2021/11/05 08:34:43;;;;;;;1999.90;999.90;;;;;;;17.12;88.66;95902.41;5053740;28;20197;-73
2021/11/05 08:37:10;;;;;;;1999.90;999.90;;;;;;;17.32;87.79;95892.16;5053363;28;20868;-73
2021/11/05 08:39:37;;;;;;;1999.90;999.90;;;;;;;17.44;87.04;95892.94;5053636;28;20197;-73
2021/11/05 08:42:07;;;;;;;1999.90;999.90;;;;;;;17.57;87.15;95898.97;5053180;28;20225;-73
2021/11/05 08:44:34;;;;;;;1999.90;999.90;;;;;;;17.57;86.21;95896.34;5053216;28;20197;-73
2021/11/05 08:47:01;;;;;;;1999.90;999.90;;;;;;;17.58;86.76;95903.16;5053458;28;20209;-73
2021/11/05 08:49:28;;;;;;;1999.90;999.90;;;;;;;17.61;86.54;95907.75;5052989;28;20248;-73
2021/11/05 08:51:55;;;;;;;1999.90;999.90;;;;;;;17.67;85.99;95893.31;5053420;28;20197;-73
2021/11/05 08:54:23;;;;;;;1999.90;999.90;;;;;;;17.61;86.80;95907.75;5053264;28;20196;-73
2021/11/05 08:56:51;;;;;;;1999.90;999.90;;;;;;;17.50;87.47;95899.50;5053170;28;20197;-74
2021/11/05 08:59:21;;;;;;;1999.90;999.90;;;;;;;17.67;88.01;95895.19;5052779;28;20250;-73
2021/11/05 09:01:48;;;;;;;1999.90;999.90;;;;;;;17.92;85.71;95897.47;5053192;28;20208;-73
2021/11/05 09:04:17;;;;;;;1999.90;999.90;;;;;;;17.87;86.70;95895.06;5053138;28;20201;-73
2021/11/05 09:06:45;;;;;;;1999.90;999.90;;;;;;;18.05;84.73;95890.34;5052863;28;20197;-73
2021/11/05 09:09:13;;;;;;;1999.90;999.90;;;;;;;18.21;82.83;95890.44;5052704;28;20703;-73
2021/11/05 09:11:40;;;;;;;1999.90;999.90;;;;;;;18.27;82.43;95875.97;5052546;28;20264;-73
2021/11/05 09:14:07;;;;;;;1999.90;999.90;;;;;;;18.38;82.30;95888.28;5052780;28;20240;-73
2021/11/05 09:16:36;;;;;;;1999.90;999.90;;;;;;;18.68;80.24;95891.41;5053134;28;20236;-74
2021/11/05 09:19:03;;;;;;;1999.90;999.90;;;;;;;18.88;79.70;95887.84;5053087;28;20193;-73
2021/11/05 09:21:32;;;;;;;1999.90;999.90;;;;;;;18.98;79.09;95889.22;5051744;28;20283;-73
2021/11/05 09:23:59;;;;;;;1999.90;999.90;;;;;;;19.14;78.08;95884.75;5052779;28;20259;-73
2021/11/05 09:26:26;;;;;;;1999.90;999.90;;;;;;;19.18;77.59;95871.66;5052428;28;20197;-73
2021/11/05 09:28:53;;;;;;;1999.90;999.90;;;;;;;19.25;76.25;95885.00;5052253;28;20254;-73
2021/11/05 09:31:21;;;;;;;1999.90;999.90;;;;;;;19.32;76.04;95872.03;5052603;28;20274;-73
2021/11/05 09:33:50;;;;;;;1999.90;999.90;;;;;;;19.46;75.59;95880.31;5052548;28;20204;-73
2021/11/05 09:36:18;;;;;;;1999.90;999.90;;;;;;;19.54;75.62;95887.28;5052264;28;20708;-72
2021/11/05 09:38:46;;;;;;;1999.90;999.90;;;;;;;19.53;77.63;95885.72;5052072;28;20193;-72
2021/11/05 09:41:14;;;;;;;1999.90;999.90;;;;;;;19.72;77.95;95880.56;5052146;28;20251;-72
2021/11/05 09:43:41;;;;;;;1999.90;999.90;;;;;;;19.90;74.36;95873.03;5052006;28;20681;-72
2021/11/05 09:46:09;;;;;;;1999.90;999.90;;;;;;;19.89;74.12;95873.38;5052052;28;20228;-72
2021/11/05 09:48:38;;;;;;;1999.90;999.90;;;;;;;20.01;74.96;95879.31;5051965;28;20197;-73
2021/11/05 09:51:07;;;;;;;1999.90;999.90;;;;;;;20.13;73.92;95865.22;5052225;28;20201;-73
2021/11/05 09:53:38;;;;;;;1999.90;999.90;;;;;;;20.45;71.70;95865.94;5051747;28;20662;-73
2021/11/05 09:56:08;;;;;;;1999.90;999.90;;;;;;;20.47;73.15;95874.28;5051759;28;20665;-72
2021/11/05 09:58:37;;;;;;;1999.90;999.90;;;;;;;20.48;70.86;95862.59;5051536;28;20193;-73
2021/11/05 10:01:05;;;;;;;1999.90;999.90;;;;;;;20.51;70.87;95860.03;5051556;28;20193;-73
2021/11/05 10:03:33;;;;;;;1999.90;999.90;;;;;;;20.48;71.46;95850.16;5051553;28;20265;-73
2021/11/05 10:06:00;;;;;;;1999.90;999.90;;;;;;;20.57;70.34;95847.31;5051994;28;20197;-73
2021/11/05 10:08:31;;;;;;;1999.90;999.90;;;;;;;20.62;72.12;95849.69;5051901;28;20584;-73
2021/11/05 10:10:59;;;;;;;1999.90;999.90;;;;;;;20.90;70.06;95829.06;5051637;28;20188;-72
2021/11/05 10:13:26;;;;;;;1999.90;999.90;;;;;;;21.07;69.59;95845.59;5051265;28;20237;-73
2021/11/05 10:15:56;;;;;;;1999.90;999.90;;;;;;;21.11;69.45;95844.53;5051418;28;20209;-72
2021/11/05 10:18:26;;;;;;;1999.90;999.90;;;;;;;20.96;68.22;95846.16;5051458;28;20199;-73
2021/11/05 10:21:09;;;;;;;1999.90;999.90;;;;;;;21.13;68.20;95815.84;5051892;28;20244;-73
2021/11/05 10:23:39;;;;;;;1999.90;999.90;;;;;;;21.42;68.35;95814.44;5051279;28;20685;-72
2021/11/05 10:26:08;;;;;;;1999.90;999.90;;;;;;;21.39;68.27;95834.44;5051479;28;20209;-73
2021/11/05 10:28:38;;;;;;;1999.90;999.90;;;;;;;21.43;68.32;95819.41;5051416;28;20201;-72
2021/11/05 10:31:07;;;;;;;1999.90;999.90;;;;;;;21.61;66.91;95805.69;5051470;28;20185;-72
2021/11/05 10:33:40;;;;;;;1999.90;999.90;;;;;;;21.62;68.95;95823.09;5051229;28;20197;-73
2021/11/05 10:36:11;;;;;;;1999.90;999.90;;;;;;;21.74;67.99;95807.00;5051042;28;20185;-73
2021/11/05 10:38:42;;;;;;;1999.90;999.90;;;;;;;21.90;66.29;95805.72;5051366;28;20201;-72
2021/11/05 10:41:11;;;;;;;1999.90;999.90;;;;;;;22.05;65.84;95804.06;5051209;28;20216;-72
2021/11/05 10:43:41;;;;;;;1999.90;999.90;;;;;;;22.12;64.95;95801.50;5050890;28;20725;-72
2021/11/05 10:46:22;;;;;;;1999.90;999.90;;;;;;;22.15;65.44;95800.03;5050946;28;20189;-71
2021/11/05 10:48:49;;;;;;;1999.90;999.90;;;;;;;22.20;64.92;95807.66;5050978;28;20239;-72
2021/11/05 10:51:16;;;;;;;1999.90;999.90;;;;;;;22.37;62.98;95785.13;5050681;28;20231;-72
2021/11/05 10:53:45;;;;;;;1999.90;999.90;;;;;;;22.46;62.35;95790.94;5051003;28;20205;-72